sensor_id;sensor_type;location;lat;lon;timestamp;P1;durP1;ratioP1;P2;durP2;ratioP2
46907;SDS011;32655;53.452;9.976;2023-06-10T00:00:38;12.43;;;4.82;;
46907;SDS011;32655;53.452;9.976;2023-06-10T00:03:06;11.93;;;4.07;;
46907;SDS011;32655;53.452;9.976;2023-06-10T00:05:31;12.88;;;4.53;;
46907;SDS011;32655;53.452;9.976;2023-06-10T00:07:56;9.52;;;5.32;;
46907;SDS011;32655;53.452;9.976;2023-06-10T00:10:22;10.00;;;4.60;;
46907;SDS011;32655;53.452;9.976;2023-06-10T00:12:49;10.13;;;4.80;;
46907;SDS011;32655;53.452;9.976;2023-06-10T00:15:16;13.30;;;5.20;;
46907;SDS011;32655;53.452;9.976;2023-06-10T00:17:42;11.57;;;4.78;;
46907;SDS011;32655;53.452;9.976;2023-06-10T00:20:08;9.73;;;4.72;;
46907;SDS011;32655;53.452;9.976;2023-06-10T00:22:36;8.07;;;4.50;;
46907;SDS011;32655;53.452;9.976;2023-06-10T00:25:02;9.75;;;5.05;;
46907;SDS011;32655;53.452;9.976;2023-06-10T00:27:28;10.82;;;5.10;;
46907;SDS011;32655;53.452;9.976;2023-06-10T00:29:59;8.68;;;4.70;;
46907;SDS011;32655;53.452;9.976;2023-06-10T00:32:29;8.73;;;4.70;;
46907;SDS011;32655;53.452;9.976;2023-06-10T00:34:55;10.48;;;5.35;;
46907;SDS011;32655;53.452;9.976;2023-06-10T00:37:21;13.57;;;4.55;;
46907;SDS011;32655;53.452;9.976;2023-06-10T00:39:46;7.30;;;4.60;;
46907;SDS011;32655;53.452;9.976;2023-06-10T00:42:11;8.63;;;4.00;;
46907;SDS011;32655;53.452;9.976;2023-06-10T00:44:37;8.73;;;3.92;;
46907;SDS011;32655;53.452;9.976;2023-06-10T00:47:02;13.85;;;4.57;;
46907;SDS011;32655;53.452;9.976;2023-06-10T00:49:28;9.75;;;3.95;;
46907;SDS011;32655;53.452;9.976;2023-06-10T00:51:53;11.95;;;4.30;;
46907;SDS011;32655;53.452;9.976;2023-06-10T00:54:19;14.60;;;4.72;;
46907;SDS011;32655;53.452;9.976;2023-06-10T00:56:45;12.05;;;4.78;;
46907;SDS011;32655;53.452;9.976;2023-06-10T00:59:12;10.38;;;4.03;;
46907;SDS011;32655;53.452;9.976;2023-06-10T01:01:39;10.13;;;4.07;;
46907;SDS011;32655;53.452;9.976;2023-06-10T01:04:04;10.20;;;4.30;;
46907;SDS011;32655;53.452;9.976;2023-06-10T01:06:39;10.23;;;4.03;;
46907;SDS011;32655;53.452;9.976;2023-06-10T01:09:26;9.15;;;3.47;;
46907;SDS011;32655;53.452;9.976;2023-06-10T01:12:18;8.90;;;3.88;;
46907;SDS011;32655;53.452;9.976;2023-06-10T01:14:47;9.18;;;3.92;;
46907;SDS011;32655;53.452;9.976;2023-06-10T01:17:13;11.80;;;4.55;;
46907;SDS011;32655;53.452;9.976;2023-06-10T01:19:41;9.38;;;3.95;;
46907;SDS011;32655;53.452;9.976;2023-06-10T01:22:08;8.55;;;3.40;;
46907;SDS011;32655;53.452;9.976;2023-06-10T01:24:35;8.80;;;4.30;;
46907;SDS011;32655;53.452;9.976;2023-06-10T01:27:01;9.77;;;4.28;;
46907;SDS011;32655;53.452;9.976;2023-06-10T01:29:33;7.18;;;3.58;;
46907;SDS011;32655;53.452;9.976;2023-06-10T01:32:06;9.38;;;3.83;;
46907;SDS011;32655;53.452;9.976;2023-06-10T01:34:34;9.68;;;4.03;;
46907;SDS011;32655;53.452;9.976;2023-06-10T01:37:01;10.70;;;3.85;;
46907;SDS011;32655;53.452;9.976;2023-06-10T01:39:27;8.68;;;3.72;;
46907;SDS011;32655;53.452;9.976;2023-06-10T01:41:53;5.70;;;3.75;;
46907;SDS011;32655;53.452;9.976;2023-06-10T01:44:19;10.13;;;4.78;;
46907;SDS011;32655;53.452;9.976;2023-06-10T01:46:46;7.82;;;3.55;;
46907;SDS011;32655;53.452;9.976;2023-06-10T01:49:11;6.72;;;3.72;;
46907;SDS011;32655;53.452;9.976;2023-06-10T01:51:37;11.90;;;4.28;;
46907;SDS011;32655;53.452;9.976;2023-06-10T01:54:02;10.80;;;4.00;;
46907;SDS011;32655;53.452;9.976;2023-06-10T01:56:27;9.85;;;4.15;;
46907;SDS011;32655;53.452;9.976;2023-06-10T01:58:53;8.05;;;3.78;;
46907;SDS011;32655;53.452;9.976;2023-06-10T02:01:23;8.60;;;3.53;;
46907;SDS011;32655;53.452;9.976;2023-06-10T02:03:49;10.35;;;4.28;;
46907;SDS011;32655;53.452;9.976;2023-06-10T02:06:14;6.13;;;3.53;;
46907;SDS011;32655;53.452;9.976;2023-06-10T02:08:40;8.80;;;3.53;;
46907;SDS011;32655;53.452;9.976;2023-06-10T02:11:05;5.72;;;3.60;;
46907;SDS011;32655;53.452;9.976;2023-06-10T02:13:32;10.82;;;4.00;;
46907;SDS011;32655;53.452;9.976;2023-06-10T02:15:57;6.90;;;3.60;;
46907;SDS011;32655;53.452;9.976;2023-06-10T02:18:22;8.73;;;3.25;;
46907;SDS011;32655;53.452;9.976;2023-06-10T02:20:48;10.55;;;3.58;;
46907;SDS011;32655;53.452;9.976;2023-06-10T02:23:14;5.35;;;3.38;;
46907;SDS011;32655;53.452;9.976;2023-06-10T02:25:39;13.20;;;3.60;;
46907;SDS011;32655;53.452;9.976;2023-06-10T02:28:05;8.57;;;3.63;;
46907;SDS011;32655;53.452;9.976;2023-06-10T02:30:30;11.05;;;3.55;;
46907;SDS011;32655;53.452;9.976;2023-06-10T02:32:55;8.27;;;3.55;;
46907;SDS011;32655;53.452;9.976;2023-06-10T02:35:21;6.55;;;3.25;;
46907;SDS011;32655;53.452;9.976;2023-06-10T02:37:47;13.18;;;4.03;;
46907;SDS011;32655;53.452;9.976;2023-06-10T02:40:12;5.55;;;3.08;;
46907;SDS011;32655;53.452;9.976;2023-06-10T02:42:38;6.80;;;2.72;;
46907;SDS011;32655;53.452;9.976;2023-06-10T02:45:03;11.75;;;3.30;;
46907;SDS011;32655;53.452;9.976;2023-06-10T02:47:29;8.40;;;3.55;;
46907;SDS011;32655;53.452;9.976;2023-06-10T02:49:55;7.18;;;3.00;;
46907;SDS011;32655;53.452;9.976;2023-06-10T02:52:20;5.20;;;2.80;;
46907;SDS011;32655;53.452;9.976;2023-06-10T02:54:45;8.68;;;3.00;;
46907;SDS011;32655;53.452;9.976;2023-06-10T02:57:11;7.63;;;2.83;;
46907;SDS011;32655;53.452;9.976;2023-06-10T02:59:36;9.10;;;3.28;;
46907;SDS011;32655;53.452;9.976;2023-06-10T03:02:01;7.18;;;3.05;;
46907;SDS011;32655;53.452;9.976;2023-06-10T03:04:27;7.07;;;2.85;;
46907;SDS011;32655;53.452;9.976;2023-06-10T03:06:54;7.43;;;2.70;;
46907;SDS011;32655;53.452;9.976;2023-06-10T03:09:19;7.68;;;2.72;;
46907;SDS011;32655;53.452;9.976;2023-06-10T03:11:44;8.95;;;3.75;;
46907;SDS011;32655;53.452;9.976;2023-06-10T03:14:10;6.55;;;2.78;;
46907;SDS011;32655;53.452;9.976;2023-06-10T03:16:35;8.05;;;2.90;;
46907;SDS011;32655;53.452;9.976;2023-06-10T03:19:00;9.10;;;2.70;;
46907;SDS011;32655;53.452;9.976;2023-06-10T03:21:26;7.65;;;3.00;;
46907;SDS011;32655;53.452;9.976;2023-06-10T03:23:51;8.05;;;3.15;;
46907;SDS011;32655;53.452;9.976;2023-06-10T03:26:17;8.32;;;3.08;;
46907;SDS011;32655;53.452;9.976;2023-06-10T03:28:42;6.80;;;2.97;;
46907;SDS011;32655;53.452;9.976;2023-06-10T03:31:07;7.50;;;2.70;;
46907;SDS011;32655;53.452;9.976;2023-06-10T03:33:33;6.88;;;3.00;;
46907;SDS011;32655;53.452;9.976;2023-06-10T03:35:58;5.85;;;2.65;;
46907;SDS011;32655;53.452;9.976;2023-06-10T03:38:24;10.50;;;3.00;;
46907;SDS011;32655;53.452;9.976;2023-06-10T03:40:49;4.53;;;2.58;;
46907;SDS011;32655;53.452;9.976;2023-06-10T03:43:15;6.95;;;3.00;;
46907;SDS011;32655;53.452;9.976;2023-06-10T03:45:40;9.93;;;3.38;;
46907;SDS011;32655;53.452;9.976;2023-06-10T03:48:06;8.32;;;3.00;;
46907;SDS011;32655;53.452;9.976;2023-06-10T03:50:33;6.57;;;3.10;;
46907;SDS011;32655;53.452;9.976;2023-06-10T03:52:59;7.53;;;2.83;;
46907;SDS011;32655;53.452;9.976;2023-06-10T03:55:24;8.07;;;3.30;;
46907;SDS011;32655;53.452;9.976;2023-06-10T03:57:49;7.60;;;2.97;;
46907;SDS011;32655;53.452;9.976;2023-06-10T04:00:15;4.82;;;2.70;;
46907;SDS011;32655;53.452;9.976;2023-06-10T04:02:42;8.18;;;2.78;;
46907;SDS011;32655;53.452;9.976;2023-06-10T04:05:14;7.78;;;3.20;;
46907;SDS011;32655;53.452;9.976;2023-06-10T04:07:40;9.00;;;2.75;;
46907;SDS011;32655;53.452;9.976;2023-06-10T04:10:07;10.30;;;3.72;;
46907;SDS011;32655;53.452;9.976;2023-06-10T04:12:33;9.43;;;2.72;;
46907;SDS011;32655;53.452;9.976;2023-06-10T04:14:59;8.30;;;3.10;;
46907;SDS011;32655;53.452;9.976;2023-06-10T04:17:25;9.20;;;3.53;;
46907;SDS011;32655;53.452;9.976;2023-06-10T04:19:50;5.63;;;2.65;;
46907;SDS011;32655;53.452;9.976;2023-06-10T04:22:17;6.90;;;3.05;;
46907;SDS011;32655;53.452;9.976;2023-06-10T04:24:43;7.88;;;2.80;;
46907;SDS011;32655;53.452;9.976;2023-06-10T04:27:08;10.70;;;2.85;;
46907;SDS011;32655;53.452;9.976;2023-06-10T04:29:33;8.13;;;2.97;;
46907;SDS011;32655;53.452;9.976;2023-06-10T04:31:59;4.57;;;2.22;;
46907;SDS011;32655;53.452;9.976;2023-06-10T04:34:25;6.53;;;3.17;;
46907;SDS011;32655;53.452;9.976;2023-06-10T04:36:50;9.55;;;3.58;;
46907;SDS011;32655;53.452;9.976;2023-06-10T04:39:16;9.93;;;2.63;;
46907;SDS011;32655;53.452;9.976;2023-06-10T04:41:41;9.85;;;2.55;;
46907;SDS011;32655;53.452;9.976;2023-06-10T04:44:07;6.10;;;2.67;;
46907;SDS011;32655;53.452;9.976;2023-06-10T04:46:32;10.27;;;3.10;;
46907;SDS011;32655;53.452;9.976;2023-06-10T04:48:58;8.10;;;3.13;;
46907;SDS011;32655;53.452;9.976;2023-06-10T04:51:23;7.50;;;2.70;;
46907;SDS011;32655;53.452;9.976;2023-06-10T04:53:48;8.40;;;2.70;;
46907;SDS011;32655;53.452;9.976;2023-06-10T04:56:14;8.73;;;2.80;;
46907;SDS011;32655;53.452;9.976;2023-06-10T04:58:40;8.55;;;3.03;;
46907;SDS011;32655;53.452;9.976;2023-06-10T05:01:05;8.85;;;3.35;;
46907;SDS011;32655;53.452;9.976;2023-06-10T05:03:31;8.38;;;2.55;;
46907;SDS011;32655;53.452;9.976;2023-06-10T05:05:56;11.77;;;2.83;;
46907;SDS011;32655;53.452;9.976;2023-06-10T05:08:21;11.35;;;2.97;;
46907;SDS011;32655;53.452;9.976;2023-06-10T05:10:47;9.45;;;3.17;;
46907;SDS011;32655;53.452;9.976;2023-06-10T05:13:12;7.30;;;2.55;;
46907;SDS011;32655;53.452;9.976;2023-06-10T05:15:37;7.00;;;2.40;;
46907;SDS011;32655;53.452;9.976;2023-06-10T05:18:03;6.75;;;2.67;;
46907;SDS011;32655;53.452;9.976;2023-06-10T05:20:28;7.70;;;2.90;;
46907;SDS011;32655;53.452;9.976;2023-06-10T05:22:54;8.20;;;2.72;;
46907;SDS011;32655;53.452;9.976;2023-06-10T05:25:19;11.55;;;2.85;;
46907;SDS011;32655;53.452;9.976;2023-06-10T05:27:44;7.50;;;2.20;;
46907;SDS011;32655;53.452;9.976;2023-06-10T05:30:10;9.18;;;2.63;;
46907;SDS011;32655;53.452;9.976;2023-06-10T05:32:36;10.13;;;2.20;;
46907;SDS011;32655;53.452;9.976;2023-06-10T05:35:01;7.07;;;2.95;;
46907;SDS011;32655;53.452;9.976;2023-06-10T05:37:28;7.97;;;2.50;;
46907;SDS011;32655;53.452;9.976;2023-06-10T05:39:54;14.65;;;3.30;;
46907;SDS011;32655;53.452;9.976;2023-06-10T05:42:19;5.70;;;2.67;;
46907;SDS011;32655;53.452;9.976;2023-06-10T05:44:44;10.75;;;2.95;;
46907;SDS011;32655;53.452;9.976;2023-06-10T05:47:10;7.47;;;2.33;;
46907;SDS011;32655;53.452;9.976;2023-06-10T05:49:35;9.80;;;3.38;;
46907;SDS011;32655;53.452;9.976;2023-06-10T05:52:00;7.32;;;3.28;;
46907;SDS011;32655;53.452;9.976;2023-06-10T05:54:26;9.57;;;2.80;;
46907;SDS011;32655;53.452;9.976;2023-06-10T05:56:51;8.32;;;2.45;;
46907;SDS011;32655;53.452;9.976;2023-06-10T05:59:17;9.43;;;2.58;;
46907;SDS011;32655;53.452;9.976;2023-06-10T06:01:42;12.63;;;2.85;;
46907;SDS011;32655;53.452;9.976;2023-06-10T06:04:07;9.65;;;2.92;;
46907;SDS011;32655;53.452;9.976;2023-06-10T06:06:33;10.65;;;3.58;;
46907;SDS011;32655;53.452;9.976;2023-06-10T06:08:58;5.93;;;2.50;;
46907;SDS011;32655;53.452;9.976;2023-06-10T06:11:23;15.50;;;2.80;;
46907;SDS011;32655;53.452;9.976;2023-06-10T06:13:50;6.55;;;2.33;;
46907;SDS011;32655;53.452;9.976;2023-06-10T06:16:16;7.10;;;2.50;;
46907;SDS011;32655;53.452;9.976;2023-06-10T06:18:43;8.68;;;2.47;;
46907;SDS011;32655;53.452;9.976;2023-06-10T06:21:08;8.43;;;2.67;;
46907;SDS011;32655;53.452;9.976;2023-06-10T06:23:33;6.18;;;2.70;;
46907;SDS011;32655;53.452;9.976;2023-06-10T06:25:59;9.18;;;2.20;;
46907;SDS011;32655;53.452;9.976;2023-06-10T06:28:24;10.75;;;3.40;;
46907;SDS011;32655;53.452;9.976;2023-06-10T06:30:53;8.40;;;2.65;;
46907;SDS011;32655;53.452;9.976;2023-06-10T06:33:20;9.23;;;2.67;;
46907;SDS011;32655;53.452;9.976;2023-06-10T06:35:45;7.68;;;2.50;;
46907;SDS011;32655;53.452;9.976;2023-06-10T06:38:11;9.13;;;3.03;;
46907;SDS011;32655;53.452;9.976;2023-06-10T06:40:36;5.70;;;2.53;;
46907;SDS011;32655;53.452;9.976;2023-06-10T06:43:02;10.60;;;3.08;;
46907;SDS011;32655;53.452;9.976;2023-06-10T06:45:27;7.75;;;2.78;;
46907;SDS011;32655;53.452;9.976;2023-06-10T06:47:52;6.97;;;2.70;;
46907;SDS011;32655;53.452;9.976;2023-06-10T06:50:18;8.75;;;2.85;;
46907;SDS011;32655;53.452;9.976;2023-06-10T06:52:43;8.18;;;2.63;;
46907;SDS011;32655;53.452;9.976;2023-06-10T06:55:09;9.88;;;3.03;;
46907;SDS011;32655;53.452;9.976;2023-06-10T06:57:34;6.63;;;2.63;;
46907;SDS011;32655;53.452;9.976;2023-06-10T06:59:59;7.25;;;2.75;;
46907;SDS011;32655;53.452;9.976;2023-06-10T07:02:25;9.90;;;2.97;;
46907;SDS011;32655;53.452;9.976;2023-06-10T07:04:50;13.18;;;3.28;;
46907;SDS011;32655;53.452;9.976;2023-06-10T07:07:16;8.30;;;2.67;;
46907;SDS011;32655;53.452;9.976;2023-06-10T07:09:41;5.68;;;3.00;;
46907;SDS011;32655;53.452;9.976;2023-06-10T07:12:06;10.32;;;2.95;;
46907;SDS011;32655;53.452;9.976;2023-06-10T07:14:32;7.25;;;3.08;;
46907;SDS011;32655;53.452;9.976;2023-06-10T07:16:57;7.28;;;2.70;;
46907;SDS011;32655;53.452;9.976;2023-06-10T07:19:23;6.43;;;2.40;;
46907;SDS011;32655;53.452;9.976;2023-06-10T07:21:48;10.85;;;2.60;;
46907;SDS011;32655;53.452;9.976;2023-06-10T07:24:14;6.22;;;2.53;;
46907;SDS011;32655;53.452;9.976;2023-06-10T07:26:39;11.55;;;2.97;;
46907;SDS011;32655;53.452;9.976;2023-06-10T07:29:04;10.57;;;2.92;;
46907;SDS011;32655;53.452;9.976;2023-06-10T07:31:30;8.35;;;3.10;;
46907;SDS011;32655;53.452;9.976;2023-06-10T07:33:55;11.13;;;3.10;;
46907;SDS011;32655;53.452;9.976;2023-06-10T07:36:20;10.15;;;3.05;;
46907;SDS011;32655;53.452;9.976;2023-06-10T07:38:46;6.55;;;2.85;;
46907;SDS011;32655;53.452;9.976;2023-06-10T07:41:11;5.45;;;2.80;;
46907;SDS011;32655;53.452;9.976;2023-06-10T07:43:37;8.13;;;3.15;;
46907;SDS011;32655;53.452;9.976;2023-06-10T07:46:03;7.93;;;2.67;;
46907;SDS011;32655;53.452;9.976;2023-06-10T07:48:30;9.10;;;2.90;;
46907;SDS011;32655;53.452;9.976;2023-06-10T07:50:55;6.10;;;2.60;;
46907;SDS011;32655;53.452;9.976;2023-06-10T07:53:21;5.70;;;2.60;;
46907;SDS011;32655;53.452;9.976;2023-06-10T07:55:46;8.50;;;3.50;;
46907;SDS011;32655;53.452;9.976;2023-06-10T07:58:11;5.30;;;2.95;;
46907;SDS011;32655;53.452;9.976;2023-06-10T08:00:37;7.88;;;3.13;;
46907;SDS011;32655;53.452;9.976;2023-06-10T08:03:02;7.55;;;2.85;;
46907;SDS011;32655;53.452;9.976;2023-06-10T08:05:27;6.38;;;3.00;;
46907;SDS011;32655;53.452;9.976;2023-06-10T08:07:53;5.22;;;2.80;;
46907;SDS011;32655;53.452;9.976;2023-06-10T08:10:18;8.45;;;3.17;;
46907;SDS011;32655;53.452;9.976;2023-06-10T08:12:43;8.52;;;3.10;;
46907;SDS011;32655;53.452;9.976;2023-06-10T08:15:09;8.38;;;3.30;;
46907;SDS011;32655;53.452;9.976;2023-06-10T08:17:34;5.57;;;3.08;;
46907;SDS011;32655;53.452;9.976;2023-06-10T08:20:00;9.55;;;3.70;;
46907;SDS011;32655;53.452;9.976;2023-06-10T08:22:27;5.68;;;3.00;;
46907;SDS011;32655;53.452;9.976;2023-06-10T08:24:54;8.85;;;3.25;;
46907;SDS011;32655;53.452;9.976;2023-06-10T08:27:19;14.15;;;4.07;;
46907;SDS011;32655;53.452;9.976;2023-06-10T08:29:45;8.65;;;2.80;;
46907;SDS011;32655;53.452;9.976;2023-06-10T08:32:10;8.13;;;3.05;;
46907;SDS011;32655;53.452;9.976;2023-06-10T08:34:35;9.68;;;3.42;;
46907;SDS011;32655;53.452;9.976;2023-06-10T08:37:02;7.82;;;2.90;;
46907;SDS011;32655;53.452;9.976;2023-06-10T08:39:28;6.93;;;2.90;;
46907;SDS011;32655;53.452;9.976;2023-06-10T08:44:48;6.80;;;3.28;;
46907;SDS011;32655;53.452;9.976;2023-06-10T08:47:18;9.77;;;3.42;;
46907;SDS011;32655;53.452;9.976;2023-06-10T08:49:45;6.72;;;2.90;;
46907;SDS011;32655;53.452;9.976;2023-06-10T08:52:14;11.27;;;3.33;;
46907;SDS011;32655;53.452;9.976;2023-06-10T08:54:42;10.68;;;3.40;;
46907;SDS011;32655;53.452;9.976;2023-06-10T08:57:09;4.50;;;2.90;;
46907;SDS011;32655;53.452;9.976;2023-06-10T08:59:34;7.47;;;3.50;;
46907;SDS011;32655;53.452;9.976;2023-06-10T09:02:01;10.23;;;3.13;;
46907;SDS011;32655;53.452;9.976;2023-06-10T09:04:27;10.60;;;3.60;;
46907;SDS011;32655;53.452;9.976;2023-06-10T09:06:52;5.82;;;3.25;;
46907;SDS011;32655;53.452;9.976;2023-06-10T09:09:18;7.53;;;2.85;;
46907;SDS011;32655;53.452;9.976;2023-06-10T09:11:45;7.85;;;3.40;;
46907;SDS011;32655;53.452;9.976;2023-06-10T09:14:10;4.85;;;2.60;;
46907;SDS011;32655;53.452;9.976;2023-06-10T09:16:37;6.50;;;3.40;;
46907;SDS011;32655;53.452;9.976;2023-06-10T09:19:03;7.15;;;3.00;;
46907;SDS011;32655;53.452;9.976;2023-06-10T09:21:33;8.82;;;3.78;;
46907;SDS011;32655;53.452;9.976;2023-06-10T09:23:59;9.68;;;3.75;;
46907;SDS011;32655;53.452;9.976;2023-06-10T09:26:27;9.57;;;3.90;;
46907;SDS011;32655;53.452;9.976;2023-06-10T09:28:54;7.32;;;3.35;;
46907;SDS011;32655;53.452;9.976;2023-06-10T09:31:23;8.77;;;3.75;;
46907;SDS011;32655;53.452;9.976;2023-06-10T09:33:48;10.70;;;3.30;;
46907;SDS011;32655;53.452;9.976;2023-06-10T09:36:23;7.00;;;3.45;;
46907;SDS011;32655;53.452;9.976;2023-06-10T09:38:49;11.27;;;4.22;;
46907;SDS011;32655;53.452;9.976;2023-06-10T09:41:15;6.05;;;3.38;;
46907;SDS011;32655;53.452;9.976;2023-06-10T09:43:43;7.70;;;3.80;;
46907;SDS011;32655;53.452;9.976;2023-06-10T09:46:17;12.32;;;4.30;;
46907;SDS011;32655;53.452;9.976;2023-06-10T09:48:44;9.38;;;4.10;;
46907;SDS011;32655;53.452;9.976;2023-06-10T09:51:10;7.03;;;3.45;;
46907;SDS011;32655;53.452;9.976;2023-06-10T09:53:36;8.82;;;3.55;;
46907;SDS011;32655;53.452;9.976;2023-06-10T09:56:02;7.07;;;3.17;;
46907;SDS011;32655;53.452;9.976;2023-06-10T09:58:37;14.10;;;3.90;;
46907;SDS011;32655;53.452;9.976;2023-06-10T10:01:08;6.90;;;3.55;;
46907;SDS011;32655;53.452;9.976;2023-06-10T10:03:34;6.82;;;3.53;;
46907;SDS011;32655;53.452;9.976;2023-06-10T10:06:08;10.00;;;4.47;;
46907;SDS011;32655;53.452;9.976;2023-06-10T10:08:34;8.50;;;4.15;;
46907;SDS011;32655;53.452;9.976;2023-06-10T10:10:59;8.73;;;3.85;;
46907;SDS011;32655;53.452;9.976;2023-06-10T10:13:25;9.52;;;3.67;;
46907;SDS011;32655;53.452;9.976;2023-06-10T10:15:52;8.55;;;3.20;;
46907;SDS011;32655;53.452;9.976;2023-06-10T10:18:17;8.52;;;3.70;;
46907;SDS011;32655;53.452;9.976;2023-06-10T10:20:49;7.30;;;3.85;;
46907;SDS011;32655;53.452;9.976;2023-06-10T10:23:18;9.10;;;3.40;;
46907;SDS011;32655;53.452;9.976;2023-06-10T10:25:51;9.25;;;4.03;;
46907;SDS011;32655;53.452;9.976;2023-06-10T10:28:17;11.82;;;3.90;;
46907;SDS011;32655;53.452;9.976;2023-06-10T10:30:46;9.30;;;4.05;;
46907;SDS011;32655;53.452;9.976;2023-06-10T10:33:22;9.23;;;3.70;;
46907;SDS011;32655;53.452;9.976;2023-06-10T10:35:54;9.38;;;3.55;;
46907;SDS011;32655;53.452;9.976;2023-06-10T10:38:19;9.25;;;4.47;;
46907;SDS011;32655;53.452;9.976;2023-06-10T10:40:46;8.85;;;3.80;;
46907;SDS011;32655;53.452;9.976;2023-06-10T10:43:12;6.13;;;3.70;;
46907;SDS011;32655;53.452;9.976;2023-06-10T10:45:38;9.15;;;4.25;;
46907;SDS011;32655;53.452;9.976;2023-06-10T10:48:10;11.77;;;4.10;;
46907;SDS011;32655;53.452;9.976;2023-06-10T10:50:37;6.95;;;4.10;;
46907;SDS011;32655;53.452;9.976;2023-06-10T10:53:03;10.10;;;4.38;;
46907;SDS011;32655;53.452;9.976;2023-06-10T10:55:30;5.60;;;3.42;;
46907;SDS011;32655;53.452;9.976;2023-06-10T10:57:56;9.75;;;3.60;;
46907;SDS011;32655;53.452;9.976;2023-06-10T11:00:29;10.23;;;3.60;;
46907;SDS011;32655;53.452;9.976;2023-06-10T11:05:40;5.43;;;3.20;;
46907;SDS011;32655;53.452;9.976;2023-06-10T11:10:41;7.60;;;3.72;;
46907;SDS011;32655;53.452;9.976;2023-06-10T11:13:13;8.27;;;3.90;;
46907;SDS011;32655;53.452;9.976;2023-06-10T11:15:44;7.72;;;3.63;;
46907;SDS011;32655;53.452;9.976;2023-06-10T11:18:22;9.35;;;3.65;;
46907;SDS011;32655;53.452;9.976;2023-06-10T11:20:56;8.93;;;4.35;;
46907;SDS011;32655;53.452;9.976;2023-06-10T11:28:38;6.70;;;3.83;;
46907;SDS011;32655;53.452;9.976;2023-06-10T11:31:04;7.47;;;3.90;;
46907;SDS011;32655;53.452;9.976;2023-06-10T11:33:29;8.40;;;4.00;;
46907;SDS011;32655;53.452;9.976;2023-06-10T11:35:56;9.00;;;4.00;;
46907;SDS011;32655;53.452;9.976;2023-06-10T11:38:21;5.85;;;3.88;;
46907;SDS011;32655;53.452;9.976;2023-06-10T11:40:50;9.10;;;3.88;;
46907;SDS011;32655;53.452;9.976;2023-06-10T11:43:19;9.70;;;3.95;;
46907;SDS011;32655;53.452;9.976;2023-06-10T11:45:45;9.55;;;4.03;;
46907;SDS011;32655;53.452;9.976;2023-06-10T11:48:11;6.93;;;4.20;;
46907;SDS011;32655;53.452;9.976;2023-06-10T11:50:37;7.72;;;4.22;;
46907;SDS011;32655;53.452;9.976;2023-06-10T11:53:03;8.55;;;3.90;;
46907;SDS011;32655;53.452;9.976;2023-06-10T11:55:44;8.85;;;3.83;;
46907;SDS011;32655;53.452;9.976;2023-06-10T11:58:15;7.80;;;4.18;;
46907;SDS011;32655;53.452;9.976;2023-06-10T12:00:51;9.82;;;4.30;;
46907;SDS011;32655;53.452;9.976;2023-06-10T12:03:23;8.00;;;4.05;;
46907;SDS011;32655;53.452;9.976;2023-06-10T12:05:57;7.72;;;4.45;;
46907;SDS011;32655;53.452;9.976;2023-06-10T12:08:23;11.10;;;4.40;;
46907;SDS011;32655;53.452;9.976;2023-06-10T12:10:48;10.02;;;4.90;;
46907;SDS011;32655;53.452;9.976;2023-06-10T12:13:14;7.50;;;4.25;;
46907;SDS011;32655;53.452;9.976;2023-06-10T12:15:39;7.65;;;4.38;;
46907;SDS011;32655;53.452;9.976;2023-06-10T12:18:05;8.93;;;4.40;;
46907;SDS011;32655;53.452;9.976;2023-06-10T12:20:31;6.65;;;4.35;;
46907;SDS011;32655;53.452;9.976;2023-06-10T12:22:59;10.70;;;4.60;;
46907;SDS011;32655;53.452;9.976;2023-06-10T12:25:25;10.40;;;4.30;;
46907;SDS011;32655;53.452;9.976;2023-06-10T12:27:52;10.95;;;4.68;;
46907;SDS011;32655;53.452;9.976;2023-06-10T12:30:21;8.27;;;4.78;;
46907;SDS011;32655;53.452;9.976;2023-06-10T12:32:47;9.30;;;4.50;;
46907;SDS011;32655;53.452;9.976;2023-06-10T12:35:20;10.32;;;4.60;;
46907;SDS011;32655;53.452;9.976;2023-06-10T12:37:56;7.20;;;4.38;;
46907;SDS011;32655;53.452;9.976;2023-06-10T12:40:25;8.15;;;4.68;;
46907;SDS011;32655;53.452;9.976;2023-06-10T12:42:53;10.00;;;4.75;;
46907;SDS011;32655;53.452;9.976;2023-06-10T12:45:32;7.50;;;4.28;;
46907;SDS011;32655;53.452;9.976;2023-06-10T12:48:04;7.88;;;4.40;;
46907;SDS011;32655;53.452;9.976;2023-06-10T12:50:31;8.77;;;4.75;;
46907;SDS011;32655;53.452;9.976;2023-06-10T12:52:57;9.98;;;4.53;;
46907;SDS011;32655;53.452;9.976;2023-06-10T12:55:22;7.38;;;4.43;;
46907;SDS011;32655;53.452;9.976;2023-06-10T12:57:48;12.10;;;4.75;;
46907;SDS011;32655;53.452;9.976;2023-06-10T13:00:14;15.85;;;4.50;;
46907;SDS011;32655;53.452;9.976;2023-06-10T13:02:40;12.43;;;5.28;;
46907;SDS011;32655;53.452;9.976;2023-06-10T13:05:06;10.35;;;4.63;;
46907;SDS011;32655;53.452;9.976;2023-06-10T13:07:31;12.07;;;4.72;;
46907;SDS011;32655;53.452;9.976;2023-06-10T13:09:56;5.72;;;4.40;;
46907;SDS011;32655;53.452;9.976;2023-06-10T13:12:22;7.80;;;4.25;;
46907;SDS011;32655;53.452;9.976;2023-06-10T13:14:48;7.57;;;4.32;;
46907;SDS011;32655;53.452;9.976;2023-06-10T13:17:13;7.82;;;4.45;;
46907;SDS011;32655;53.452;9.976;2023-06-10T13:19:38;7.50;;;4.13;;
46907;SDS011;32655;53.452;9.976;2023-06-10T13:22:04;8.35;;;4.22;;
46907;SDS011;32655;53.452;9.976;2023-06-10T13:24:29;8.18;;;4.25;;
46907;SDS011;32655;53.452;9.976;2023-06-10T13:26:55;10.43;;;4.63;;
46907;SDS011;32655;53.452;9.976;2023-06-10T13:29:21;9.23;;;4.60;;
46907;SDS011;32655;53.452;9.976;2023-06-10T13:31:46;8.02;;;4.70;;
46907;SDS011;32655;53.452;9.976;2023-06-10T13:34:12;9.80;;;3.88;;
46907;SDS011;32655;53.452;9.976;2023-06-10T13:36:37;8.25;;;4.28;;
46907;SDS011;32655;53.452;9.976;2023-06-10T13:39:02;9.60;;;4.60;;
46907;SDS011;32655;53.452;9.976;2023-06-10T13:41:28;6.80;;;4.13;;
46907;SDS011;32655;53.452;9.976;2023-06-10T13:43:53;7.00;;;4.07;;
46907;SDS011;32655;53.452;9.976;2023-06-10T13:46:19;12.45;;;4.90;;
46907;SDS011;32655;53.452;9.976;2023-06-10T13:48:46;10.93;;;4.13;;
46907;SDS011;32655;53.452;9.976;2023-06-10T13:51:13;8.80;;;4.00;;
46907;SDS011;32655;53.452;9.976;2023-06-10T13:53:38;9.95;;;4.30;;
46907;SDS011;32655;53.452;9.976;2023-06-10T13:56:03;8.55;;;3.53;;
46907;SDS011;32655;53.452;9.976;2023-06-10T13:58:29;10.65;;;3.67;;
46907;SDS011;32655;53.452;9.976;2023-06-10T14:00:54;8.85;;;4.13;;
46907;SDS011;32655;53.452;9.976;2023-06-10T14:03:20;9.05;;;3.88;;
46907;SDS011;32655;53.452;9.976;2023-06-10T14:05:45;13.27;;;3.92;;
46907;SDS011;32655;53.452;9.976;2023-06-10T14:08:11;11.10;;;4.50;;
46907;SDS011;32655;53.452;9.976;2023-06-10T14:10:36;14.80;;;4.63;;
46907;SDS011;32655;53.452;9.976;2023-06-10T14:13:02;15.30;;;3.97;;
46907;SDS011;32655;53.452;9.976;2023-06-10T14:15:27;7.30;;;3.35;;
46907;SDS011;32655;53.452;9.976;2023-06-10T14:17:53;8.15;;;4.32;;
46907;SDS011;32655;53.452;9.976;2023-06-10T14:20:18;14.02;;;3.88;;
46907;SDS011;32655;53.452;9.976;2023-06-10T14:22:43;8.70;;;4.70;;
46907;SDS011;32655;53.452;9.976;2023-06-10T14:25:09;10.70;;;3.97;;
46907;SDS011;32655;53.452;9.976;2023-06-10T14:27:36;9.45;;;3.45;;
46907;SDS011;32655;53.452;9.976;2023-06-10T14:30:01;7.18;;;3.53;;
46907;SDS011;32655;53.452;9.976;2023-06-10T14:32:28;10.85;;;3.95;;
46907;SDS011;32655;53.452;9.976;2023-06-10T14:34:53;9.60;;;3.83;;
46907;SDS011;32655;53.452;9.976;2023-06-10T14:37:18;11.30;;;4.07;;
46907;SDS011;32655;53.452;9.976;2023-06-10T14:39:44;13.57;;;4.32;;
46907;SDS011;32655;53.452;9.976;2023-06-10T14:42:09;6.57;;;3.35;;
46907;SDS011;32655;53.452;9.976;2023-06-10T14:44:35;9.57;;;3.90;;
46907;SDS011;32655;53.452;9.976;2023-06-10T14:47:00;8.80;;;3.92;;
46907;SDS011;32655;53.452;9.976;2023-06-10T14:49:26;7.32;;;3.60;;
46907;SDS011;32655;53.452;9.976;2023-06-10T14:51:51;10.10;;;3.72;;